OAS9603 SKBO-SKSP
Flight info
| Callsign | OAS9603 |
|---|---|
| Flight time | 1h 54m |
| Altitude | 36000 |
| Route | TOBKI4R VASIL UL423 PULOX DCT ARORO UN653 TOSAV TOSAV2A |
| Aircraft | B738/M-SDE2E3FGHIRWXY/LB1 |
Departure
| Time | 2026-05-08 16:14 |
|---|---|
| Airport | El Dorado International Airport (SKBO) |
Arrival
| Time | 2026-05-08 18:08 |
|---|---|
| Airport | Gustavo Rojas Pinilla International Airport (SKSP) |
| Time | Latitude | Longitude | Altitude | Speed | Heading |
|---|---|---|---|---|---|
| 2026-05-08 15:28 | 4.69903 | -74.14494 | 8365 ft | 0 kts | 208° |
| 2026-05-08 15:53 | 4.69912 | -74.14490 | 8365 ft | 3 kts | 208° |
| 2026-05-08 15:53 | 4.69931 | -74.14478 | 8365 ft | 3 kts | 217° |
| 2026-05-08 15:53 | 4.69946 | -74.14465 | 8366 ft | 3 kts | 238° |
| 2026-05-08 15:54 | 4.69951 | -74.14449 | 8365 ft | 3 kts | 295° |
| 2026-05-08 15:54 | 4.69937 | -74.14432 | 8365 ft | 3 kts | 315° |
| 2026-05-08 15:54 | 4.69927 | -74.14420 | 8365 ft | 2 kts | 307° |
| 2026-05-08 15:54 | 4.69940 | -74.14438 | 8365 ft | 3 kts | 307° |
| 2026-05-08 15:55 | 4.69954 | -74.14457 | 8365 ft | 3 kts | 307° |
| 2026-05-08 15:55 | 4.69957 | -74.14460 | 8365 ft | 0 kts | 307° |
| 2026-05-08 16:01 | 4.69958 | -74.14462 | 8365 ft | 2 kts | 307° |
| 2026-05-08 16:01 | 4.69981 | -74.14492 | 8365 ft | 8 kts | 307° |
| 2026-05-08 16:02 | 4.70011 | -74.14532 | 8365 ft | 7 kts | 307° |
| 2026-05-08 16:02 | 4.70039 | -74.14569 | 8365 ft | 7 kts | 307° |
| 2026-05-08 16:02 | 4.70077 | -74.14595 | 8365 ft | 7 kts | 329° |
| 2026-05-08 16:02 | 4.70117 | -74.14631 | 8365 ft | 9 kts | 323° |
| 2026-05-08 16:03 | 4.70159 | -74.14670 | 8365 ft | 4 kts | 294° |
| 2026-05-08 16:03 | 4.70154 | -74.14700 | 8356 ft | 5 kts | 241° |
| 2026-05-08 16:03 | 4.70124 | -74.14731 | 8365 ft | 7 kts | 217° |
| 2026-05-08 16:03 | 4.70078 | -74.14765 | 8365 ft | 9 kts | 217° |
| 2026-05-08 16:04 | 4.70019 | -74.14809 | 8365 ft | 12 kts | 217° |
| 2026-05-08 16:04 | 4.69950 | -74.14862 | 8365 ft | 13 kts | 217° |
| 2026-05-08 16:04 | 4.69879 | -74.14917 | 8365 ft | 11 kts | 217° |
| 2026-05-08 16:04 | 4.69844 | -74.14959 | 8365 ft | 3 kts | 274° |
| 2026-05-08 16:05 | 4.69857 | -74.14980 | 8365 ft | 5 kts | 304° |
| 2026-05-08 16:05 | 4.69881 | -74.15012 | 8365 ft | 7 kts | 307° |
| 2026-05-08 16:05 | 4.69915 | -74.15057 | 8365 ft | 9 kts | 308° |
| 2026-05-08 16:05 | 4.69959 | -74.15114 | 8365 ft | 11 kts | 307° |
| 2026-05-08 16:06 | 4.70010 | -74.15182 | 8365 ft | 13 kts | 307° |
| 2026-05-08 16:06 | 4.70070 | -74.15260 | 8365 ft | 15 kts | 307° |
| 2026-05-08 16:06 | 4.70136 | -74.15348 | 8365 ft | 16 kts | 307° |
| 2026-05-08 16:06 | 4.70198 | -74.15430 | 8365 ft | 14 kts | 307° |
| 2026-05-08 16:07 | 4.70261 | -74.15515 | 8365 ft | 16 kts | 307° |
| 2026-05-08 16:07 | 4.70332 | -74.15608 | 8364 ft | 18 kts | 308° |
| 2026-05-08 16:07 | 4.70410 | -74.15709 | 8364 ft | 17 kts | 307° |
| 2026-05-08 16:07 | 4.70481 | -74.15803 | 8365 ft | 14 kts | 307° |
| 2026-05-08 16:08 | 4.70542 | -74.15884 | 8365 ft | 15 kts | 307° |
| 2026-05-08 16:08 | 4.70602 | -74.15963 | 8365 ft | 14 kts | 307° |
| 2026-05-08 16:08 | 4.70660 | -74.16038 | 8365 ft | 13 kts | 307° |
| 2026-05-08 16:08 | 4.70715 | -74.16110 | 8365 ft | 13 kts | 307° |
| 2026-05-08 16:09 | 4.70767 | -74.16182 | 8365 ft | 13 kts | 306° |
| 2026-05-08 16:09 | 4.70819 | -74.16251 | 8365 ft | 12 kts | 307° |
| 2026-05-08 16:09 | 4.70870 | -74.16317 | 8365 ft | 12 kts | 307° |
| 2026-05-08 16:09 | 4.70920 | -74.16384 | 8365 ft | 12 kts | 307° |
| 2026-05-08 16:10 | 4.70976 | -74.16458 | 8365 ft | 14 kts | 307° |
| 2026-05-08 16:10 | 4.71041 | -74.16545 | 8365 ft | 17 kts | 307° |
| 2026-05-08 16:10 | 4.71112 | -74.16637 | 8365 ft | 16 kts | 308° |
| 2026-05-08 16:10 | 4.71169 | -74.16711 | 8365 ft | 12 kts | 307° |
| 2026-05-08 16:11 | 4.71200 | -74.16781 | 8365 ft | 11 kts | 261° |
| 2026-05-08 16:11 | 4.71150 | -74.16835 | 8364 ft | 8 kts | 218° |
| 2026-05-08 16:11 | 4.71096 | -74.16873 | 8362 ft | 11 kts | 214° |
| 2026-05-08 16:11 | 4.71058 | -74.16899 | 8362 ft | 7 kts | 209° |
| 2026-05-08 16:12 | 4.71028 | -74.16889 | 8362 ft | 5 kts | 128° |
| 2026-05-08 16:12 | 4.71025 | -74.16884 | 8362 ft | 0 kts | 125° |
| 2026-05-08 16:12 | 4.71024 | -74.16883 | 8362 ft | 2 kts | 125° |
| 2026-05-08 16:13 | 4.70893 | -74.16709 | 8362 ft | 64 kts | 127° |
| 2026-05-08 16:13 | 4.70498 | -74.16185 | 8365 ft | 123 kts | 127° |
| 2026-05-08 16:13 | 4.69875 | -74.15359 | 8365 ft | 173 kts | 128° |
| 2026-05-08 16:13 | 4.69072 | -74.14301 | 8579 ft | 197 kts | 126° |
| 2026-05-08 16:14 | 4.68209 | -74.13177 | 9106 ft | 211 kts | 130° |
| 2026-05-08 16:14 | 4.67019 | -74.12369 | 9811 ft | 210 kts | 168° |
| 2026-05-08 16:14 | 4.65501 | -74.12485 | 10059 ft | 238 kts | 203° |
| 2026-05-08 16:14 | 4.64250 | -74.13597 | 10385 ft | 252 kts | 238° |
| 2026-05-08 16:15 | 4.63518 | -74.15186 | 10958 ft | 248 kts | 250° |
| 2026-05-08 16:15 | 4.62974 | -74.16832 | 11507 ft | 251 kts | 249° |
| 2026-05-08 16:15 | 4.62390 | -74.18494 | 11959 ft | 256 kts | 249° |
| 2026-05-08 16:15 | 4.61775 | -74.20177 | 12471 ft | 258 kts | 248° |
| 2026-05-08 16:16 | 4.61264 | -74.21940 | 12752 ft | 272 kts | 258° |
| 2026-05-08 16:16 | 4.60926 | -74.23866 | 12941 ft | 290 kts | 258° |
| 2026-05-08 16:16 | 4.60548 | -74.25938 | 13056 ft | 314 kts | 258° |
| 2026-05-08 16:16 | 4.60179 | -74.28157 | 13265 ft | 334 kts | 263° |
| 2026-05-08 16:17 | 4.60031 | -74.30558 | 13423 ft | 355 kts | 267° |
| 2026-05-08 16:17 | 4.59976 | -74.32225 | 13543 ft | 367 kts | 267° |
| 2026-05-08 16:17 | 4.59840 | -74.35690 | 14137 ft | 378 kts | 266° |
| 2026-05-08 16:17 | 4.59727 | -74.38336 | 14635 ft | 381 kts | 270° |
| 2026-05-08 16:18 | 4.60200 | -74.40941 | 15207 ft | 382 kts | 290° |
| 2026-05-08 16:18 | 4.61506 | -74.43251 | 15767 ft | 383 kts | 307° |
| 2026-05-08 16:18 | 4.63156 | -74.45370 | 16274 ft | 387 kts | 309° |
| 2026-05-08 16:18 | 4.64856 | -74.47470 | 16793 ft | 390 kts | 310° |
| 2026-05-08 16:19 | 4.66564 | -74.49593 | 17298 ft | 392 kts | 308° |
| 2026-05-08 16:19 | 4.68199 | -74.51792 | 17813 ft | 395 kts | 306° |
| 2026-05-08 16:19 | 4.69797 | -74.54050 | 18325 ft | 398 kts | 306° |
| 2026-05-08 16:19 | 4.71385 | -74.56331 | 18759 ft | 401 kts | 305° |
| 2026-05-08 16:20 | 4.72987 | -74.58630 | 19193 ft | 403 kts | 305° |
| 2026-05-08 16:20 | 4.74600 | -74.60934 | 19638 ft | 404 kts | 306° |
| 2026-05-08 16:20 | 4.76225 | -74.63243 | 20059 ft | 407 kts | 306° |
| 2026-05-08 16:20 | 4.77845 | -74.65536 | 20454 ft | 410 kts | 306° |
| 2026-05-08 16:21 | 4.79502 | -74.67875 | 20850 ft | 413 kts | 306° |
| 2026-05-08 16:21 | 4.81168 | -74.70224 | 21279 ft | 414 kts | 306° |
| 2026-05-08 16:21 | 4.82841 | -74.72581 | 21696 ft | 416 kts | 306° |
| 2026-05-08 16:21 | 4.84522 | -74.74951 | 22097 ft | 418 kts | 306° |
| 2026-05-08 16:22 | 4.86214 | -74.77335 | 22476 ft | 421 kts | 306° |
| 2026-05-08 16:22 | 4.87915 | -74.79733 | 22847 ft | 423 kts | 306° |
| 2026-05-08 16:22 | 4.89627 | -74.82146 | 23187 ft | 426 kts | 306° |
| 2026-05-08 16:22 | 4.91348 | -74.84573 | 23545 ft | 428 kts | 306° |
| 2026-05-08 16:23 | 4.93080 | -74.87014 | 23851 ft | 430 kts | 305° |
| 2026-05-08 16:23 | 4.94819 | -74.89467 | 24149 ft | 432 kts | 305° |
| 2026-05-08 16:23 | 4.96563 | -74.91927 | 24452 ft | 434 kts | 305° |
| 2026-05-08 16:23 | 4.98314 | -74.94397 | 24736 ft | 436 kts | 305° |
| 2026-05-08 16:24 | 5.00074 | -74.96881 | 25049 ft | 438 kts | 305° |
| 2026-05-08 16:24 | 5.01844 | -74.99378 | 25353 ft | 440 kts | 305° |
| 2026-05-08 16:24 | 5.03617 | -75.01880 | 25657 ft | 441 kts | 305° |
| 2026-05-08 16:24 | 5.05400 | -75.04396 | 25929 ft | 443 kts | 305° |
| 2026-05-08 16:25 | 5.07191 | -75.06925 | 26213 ft | 445 kts | 304° |
| 2026-05-08 16:25 | 5.08989 | -75.09463 | 26493 ft | 447 kts | 304° |
| 2026-05-08 16:25 | 5.10791 | -75.12007 | 26775 ft | 448 kts | 304° |
| 2026-05-08 16:25 | 5.12596 | -75.14556 | 27074 ft | 449 kts | 304° |
| 2026-05-08 16:26 | 5.14412 | -75.17120 | 27296 ft | 452 kts | 304° |
| 2026-05-08 16:26 | 5.16291 | -75.19662 | 27628 ft | 454 kts | 309° |
| 2026-05-08 16:26 | 5.18353 | -75.22072 | 27902 ft | 456 kts | 310° |
| 2026-05-08 16:26 | 5.20467 | -75.24447 | 28177 ft | 457 kts | 311° |
| 2026-05-08 16:27 | 5.22600 | -75.26815 | 28420 ft | 458 kts | 311° |
| 2026-05-08 16:27 | 5.24741 | -75.29192 | 28656 ft | 460 kts | 310° |
| 2026-05-08 16:27 | 5.26885 | -75.31587 | 28868 ft | 462 kts | 310° |
| 2026-05-08 16:27 | 5.29027 | -75.33995 | 29094 ft | 463 kts | 310° |
| 2026-05-08 16:28 | 5.31170 | -75.36415 | 29317 ft | 465 kts | 310° |
| 2026-05-08 16:28 | 5.33316 | -75.38845 | 29535 ft | 466 kts | 310° |
| 2026-05-08 16:28 | 5.35464 | -75.41280 | 29742 ft | 467 kts | 310° |
| 2026-05-08 16:28 | 5.37621 | -75.43726 | 29930 ft | 469 kts | 310° |
| 2026-05-08 16:29 | 5.39786 | -75.46180 | 30114 ft | 470 kts | 310° |
| 2026-05-08 16:29 | 5.41955 | -75.48639 | 30334 ft | 470 kts | 310° |
| 2026-05-08 16:29 | 5.44088 | -75.51057 | 30615 ft | 468 kts | 310° |
| 2026-05-08 16:29 | 5.46241 | -75.53497 | 30923 ft | 466 kts | 310° |
| 2026-05-08 16:30 | 5.48381 | -75.55921 | 31234 ft | 464 kts | 310° |
| 2026-05-08 16:30 | 5.50515 | -75.58342 | 31522 ft | 462 kts | 310° |
| 2026-05-08 16:30 | 5.52644 | -75.60756 | 31808 ft | 461 kts | 310° |
| 2026-05-08 16:30 | 5.54764 | -75.63159 | 32115 ft | 459 kts | 310° |
| 2026-05-08 16:31 | 5.56874 | -75.65553 | 32410 ft | 457 kts | 311° |
| 2026-05-08 16:31 | 5.58979 | -75.67941 | 32709 ft | 456 kts | 310° |
| 2026-05-08 16:31 | 5.61077 | -75.70322 | 32999 ft | 455 kts | 311° |
| 2026-05-08 16:31 | 5.63170 | -75.72697 | 33259 ft | 454 kts | 311° |
| 2026-05-08 16:32 | 5.65260 | -75.75069 | 33499 ft | 453 kts | 311° |
| 2026-05-08 16:32 | 5.67347 | -75.77438 | 33780 ft | 452 kts | 311° |
| 2026-05-08 16:32 | 5.69427 | -75.79798 | 34053 ft | 451 kts | 311° |
| 2026-05-08 16:32 | 5.71575 | -75.82089 | 34298 ft | 450 kts | 317° |
| 2026-05-08 16:33 | 5.73987 | -75.84090 | 34516 ft | 450 kts | 321° |
| 2026-05-08 16:33 | 5.76468 | -75.86003 | 34762 ft | 449 kts | 322° |
| 2026-05-08 16:33 | 5.78956 | -75.87887 | 34990 ft | 448 kts | 322° |
| 2026-05-08 16:33 | 5.81443 | -75.89767 | 35217 ft | 447 kts | 322° |
| 2026-05-08 16:34 | 5.83921 | -75.91651 | 35440 ft | 446 kts | 322° |
| 2026-05-08 16:34 | 5.86386 | -75.93537 | 35670 ft | 445 kts | 322° |
| 2026-05-08 16:34 | 5.88843 | -75.95428 | 35889 ft | 444 kts | 322° |
| 2026-05-08 16:34 | 5.91296 | -75.97323 | 35976 ft | 446 kts | 321° |
| 2026-05-08 16:35 | 5.96211 | -76.01129 | 35973 ft | 445 kts | 321° |
| 2026-05-08 16:35 | 6.01099 | -76.04917 | 35976 ft | 442 kts | 321° |
| 2026-05-08 16:36 | 6.05929 | -76.08661 | 35975 ft | 440 kts | 321° |
| 2026-05-08 16:36 | 6.10771 | -76.12414 | 35986 ft | 439 kts | 321° |
| 2026-05-08 16:37 | 6.15602 | -76.16159 | 35981 ft | 438 kts | 321° |
| 2026-05-08 16:37 | 6.20420 | -76.19895 | 35983 ft | 438 kts | 321° |
| 2026-05-08 16:38 | 6.25242 | -76.23636 | 35995 ft | 439 kts | 321° |
| 2026-05-08 16:38 | 6.30100 | -76.27404 | 35989 ft | 443 kts | 321° |
| 2026-05-08 16:39 | 6.34169 | -76.30562 | 35991 ft | 446 kts | 321° |
| 2026-05-08 16:39 | 6.39073 | -76.34368 | 35963 ft | 444 kts | 321° |
| 2026-05-08 16:40 | 6.43947 | -76.38151 | 35959 ft | 441 kts | 321° |
| 2026-05-08 16:40 | 6.48785 | -76.41908 | 35954 ft | 439 kts | 321° |
| 2026-05-08 16:41 | 6.53609 | -76.45655 | 35952 ft | 438 kts | 322° |
| 2026-05-08 16:42 | 6.60835 | -76.51269 | 35937 ft | 438 kts | 322° |
| 2026-05-08 16:42 | 6.65670 | -76.55026 | 35939 ft | 440 kts | 322° |
| 2026-05-08 16:43 | 6.70530 | -76.58805 | 35932 ft | 443 kts | 322° |
| 2026-05-08 16:43 | 6.75414 | -76.62602 | 35928 ft | 445 kts | 322° |
| 2026-05-08 16:44 | 6.80324 | -76.66422 | 35922 ft | 447 kts | 322° |
| 2026-05-08 16:44 | 6.85226 | -76.70236 | 35921 ft | 449 kts | 322° |
| 2026-05-08 16:45 | 6.90178 | -76.74089 | 35909 ft | 450 kts | 322° |
| 2026-05-08 16:45 | 6.95131 | -76.77944 | 35897 ft | 450 kts | 322° |
| 2026-05-08 16:46 | 7.00075 | -76.81794 | 35901 ft | 449 kts | 322° |
| 2026-05-08 16:46 | 7.05004 | -76.85633 | 35893 ft | 447 kts | 322° |
| 2026-05-08 16:47 | 7.09915 | -76.89458 | 35896 ft | 445 kts | 322° |
| 2026-05-08 16:47 | 7.14802 | -76.93267 | 35892 ft | 444 kts | 322° |
| 2026-05-08 16:48 | 7.19675 | -76.97065 | 35900 ft | 442 kts | 322° |
| 2026-05-08 16:48 | 7.24527 | -77.00849 | 35894 ft | 440 kts | 322° |
| 2026-05-08 16:49 | 7.29368 | -77.04625 | 35895 ft | 439 kts | 322° |
| 2026-05-08 16:49 | 7.34194 | -77.08390 | 35895 ft | 439 kts | 322° |
| 2026-05-08 16:50 | 7.39016 | -77.12153 | 35893 ft | 439 kts | 322° |
| 2026-05-08 16:50 | 7.43844 | -77.15922 | 35898 ft | 439 kts | 322° |
| 2026-05-08 16:51 | 7.48671 | -77.19691 | 35897 ft | 439 kts | 322° |
| 2026-05-08 16:51 | 7.53506 | -77.23468 | 35894 ft | 440 kts | 322° |
| 2026-05-08 16:52 | 7.58352 | -77.27254 | 35896 ft | 441 kts | 322° |
| 2026-05-08 16:52 | 7.63200 | -77.31044 | 35907 ft | 442 kts | 322° |
| 2026-05-08 16:53 | 7.70461 | -77.36721 | 35907 ft | 442 kts | 322° |
| 2026-05-08 16:53 | 7.75119 | -77.40755 | 35908 ft | 442 kts | 313° |
| 2026-05-08 16:54 | 7.79250 | -77.45365 | 35911 ft | 443 kts | 312° |
| 2026-05-08 16:54 | 7.83339 | -77.49997 | 35912 ft | 443 kts | 312° |
| 2026-05-08 16:55 | 7.87453 | -77.54611 | 35912 ft | 442 kts | 312° |
| 2026-05-08 16:55 | 7.91576 | -77.59208 | 35913 ft | 441 kts | 312° |
| 2026-05-08 16:56 | 7.95699 | -77.63797 | 35909 ft | 441 kts | 312° |
| 2026-05-08 16:56 | 7.99815 | -77.68381 | 35911 ft | 440 kts | 312° |
| 2026-05-08 16:57 | 8.03920 | -77.72955 | 35906 ft | 440 kts | 313° |
| 2026-05-08 16:57 | 8.08027 | -77.77532 | 35902 ft | 440 kts | 312° |
| 2026-05-08 16:58 | 8.12128 | -77.82106 | 35896 ft | 439 kts | 313° |
| 2026-05-08 16:58 | 8.16227 | -77.86678 | 35903 ft | 439 kts | 313° |
| 2026-05-08 16:59 | 8.20319 | -77.91243 | 35902 ft | 439 kts | 313° |
| 2026-05-08 16:59 | 8.24417 | -77.95818 | 35897 ft | 439 kts | 313° |
| 2026-05-08 17:00 | 8.28513 | -78.00391 | 35888 ft | 439 kts | 312° |
| 2026-05-08 17:00 | 8.32615 | -78.04973 | 35896 ft | 440 kts | 312° |
| 2026-05-08 17:01 | 8.36691 | -78.09528 | 35895 ft | 440 kts | 312° |
| 2026-05-08 17:01 | 8.40824 | -78.14094 | 35886 ft | 441 kts | 316° |
| 2026-05-08 17:02 | 8.45480 | -78.18118 | 35885 ft | 441 kts | 321° |
| 2026-05-08 17:02 | 8.50235 | -78.22037 | 35897 ft | 442 kts | 321° |
| 2026-05-08 17:03 | 8.54985 | -78.25977 | 35901 ft | 442 kts | 320° |
| 2026-05-08 17:03 | 8.59729 | -78.29946 | 35892 ft | 443 kts | 320° |
| 2026-05-08 17:04 | 8.64468 | -78.33926 | 35892 ft | 443 kts | 320° |
| 2026-05-08 17:04 | 8.69217 | -78.37917 | 35900 ft | 444 kts | 320° |
| 2026-05-08 17:05 | 8.73959 | -78.41904 | 35902 ft | 444 kts | 320° |
| 2026-05-08 17:05 | 8.78704 | -78.45894 | 35896 ft | 444 kts | 320° |
| 2026-05-08 17:06 | 8.83453 | -78.49889 | 35895 ft | 444 kts | 320° |
| 2026-05-08 17:06 | 8.87400 | -78.53209 | 35895 ft | 444 kts | 320° |
| 2026-05-08 17:07 | 8.92949 | -78.57881 | 35898 ft | 444 kts | 320° |
| 2026-05-08 17:07 | 8.97695 | -78.61876 | 35896 ft | 444 kts | 320° |
| 2026-05-08 17:08 | 9.02444 | -78.65876 | 35899 ft | 444 kts | 320° |
| 2026-05-08 17:08 | 9.07190 | -78.69875 | 35899 ft | 444 kts | 320° |
| 2026-05-08 17:09 | 9.11940 | -78.73879 | 35894 ft | 444 kts | 320° |
| 2026-05-08 17:09 | 9.16684 | -78.77879 | 35894 ft | 444 kts | 321° |
| 2026-05-08 17:10 | 9.21397 | -78.81855 | 35902 ft | 444 kts | 321° |
| 2026-05-08 17:10 | 9.26141 | -78.85857 | 35912 ft | 444 kts | 321° |
| 2026-05-08 17:11 | 9.30894 | -78.89870 | 35897 ft | 445 kts | 321° |
| 2026-05-08 17:11 | 9.35642 | -78.93880 | 35904 ft | 445 kts | 321° |
| 2026-05-08 17:12 | 9.40396 | -78.97895 | 35899 ft | 445 kts | 321° |
| 2026-05-08 17:12 | 9.45150 | -79.01913 | 35904 ft | 445 kts | 321° |
| 2026-05-08 17:13 | 9.49903 | -79.05931 | 35902 ft | 445 kts | 321° |
| 2026-05-08 17:13 | 9.54652 | -79.09947 | 35908 ft | 445 kts | 321° |
| 2026-05-08 17:14 | 9.59402 | -79.13966 | 35902 ft | 445 kts | 321° |
| 2026-05-08 17:14 | 9.64156 | -79.17989 | 35912 ft | 445 kts | 321° |
| 2026-05-08 17:15 | 9.68906 | -79.22011 | 35905 ft | 445 kts | 321° |
| 2026-05-08 17:15 | 9.73663 | -79.26039 | 35908 ft | 446 kts | 321° |
| 2026-05-08 17:16 | 9.78420 | -79.30071 | 35905 ft | 446 kts | 321° |
| 2026-05-08 17:16 | 9.83149 | -79.34079 | 35905 ft | 446 kts | 321° |
| 2026-05-08 17:17 | 9.87915 | -79.38120 | 35909 ft | 447 kts | 321° |
| 2026-05-08 17:17 | 9.92686 | -79.42167 | 35918 ft | 447 kts | 321° |
| 2026-05-08 17:18 | 9.97460 | -79.46218 | 35913 ft | 448 kts | 321° |
| 2026-05-08 17:18 | 10.02241 | -79.50277 | 35914 ft | 448 kts | 321° |
| 2026-05-08 17:19 | 10.07024 | -79.54340 | 35912 ft | 448 kts | 321° |
| 2026-05-08 17:19 | 10.11807 | -79.58404 | 35909 ft | 449 kts | 321° |
| 2026-05-08 17:20 | 10.16595 | -79.62474 | 35914 ft | 449 kts | 321° |
| 2026-05-08 17:20 | 10.21389 | -79.66550 | 35914 ft | 449 kts | 321° |
| 2026-05-08 17:21 | 10.26178 | -79.70624 | 35914 ft | 449 kts | 321° |
| 2026-05-08 17:21 | 10.30967 | -79.74701 | 35918 ft | 449 kts | 321° |
| 2026-05-08 17:22 | 10.35764 | -79.78785 | 35915 ft | 449 kts | 321° |
| 2026-05-08 17:22 | 10.40552 | -79.82864 | 35917 ft | 449 kts | 321° |
| 2026-05-08 17:23 | 10.45340 | -79.86946 | 35911 ft | 449 kts | 321° |
| 2026-05-08 17:23 | 10.50130 | -79.91034 | 35912 ft | 449 kts | 321° |
| 2026-05-08 17:24 | 10.54912 | -79.95119 | 35911 ft | 449 kts | 321° |
| 2026-05-08 17:24 | 10.59698 | -79.99209 | 35913 ft | 449 kts | 321° |
| 2026-05-08 17:25 | 10.64483 | -80.03300 | 35918 ft | 449 kts | 321° |
| 2026-05-08 17:25 | 10.69266 | -80.07391 | 35913 ft | 449 kts | 321° |
| 2026-05-08 17:26 | 10.74014 | -80.11455 | 35905 ft | 439 kts | 321° |
| 2026-05-08 17:26 | 10.78646 | -80.15421 | 35911 ft | 433 kts | 321° |
| 2026-05-08 17:27 | 10.83227 | -80.19344 | 35524 ft | 433 kts | 321° |
| 2026-05-08 17:27 | 10.85519 | -80.21308 | 35181 ft | 428 kts | 321° |
| 2026-05-08 17:27 | 10.87789 | -80.23253 | 34808 ft | 425 kts | 321° |
| 2026-05-08 17:28 | 10.90047 | -80.25188 | 34441 ft | 423 kts | 321° |
| 2026-05-08 17:28 | 10.92292 | -80.27112 | 34041 ft | 421 kts | 321° |
| 2026-05-08 17:28 | 10.94528 | -80.29029 | 33610 ft | 420 kts | 321° |
| 2026-05-08 17:28 | 10.96756 | -80.30940 | 33210 ft | 417 kts | 322° |
| 2026-05-08 17:29 | 10.98966 | -80.32835 | 32813 ft | 415 kts | 321° |
| 2026-05-08 17:29 | 11.01167 | -80.34724 | 32438 ft | 412 kts | 321° |
| 2026-05-08 17:29 | 11.03353 | -80.36599 | 32054 ft | 410 kts | 322° |
| 2026-05-08 17:29 | 11.05526 | -80.38465 | 31679 ft | 408 kts | 322° |
| 2026-05-08 17:30 | 11.07691 | -80.40323 | 31307 ft | 405 kts | 322° |
| 2026-05-08 17:30 | 11.09145 | -80.41571 | 31057 ft | 404 kts | 322° |
| 2026-05-08 17:30 | 11.11288 | -80.43412 | 30697 ft | 402 kts | 322° |
| 2026-05-08 17:30 | 11.14115 | -80.45840 | 30195 ft | 401 kts | 322° |
| 2026-05-08 17:31 | 11.15553 | -80.47075 | 29949 ft | 400 kts | 322° |
| 2026-05-08 17:31 | 11.17642 | -80.48870 | 29556 ft | 397 kts | 321° |
| 2026-05-08 17:31 | 11.19748 | -80.50680 | 29144 ft | 395 kts | 321° |
| 2026-05-08 17:31 | 11.21838 | -80.52476 | 28752 ft | 392 kts | 322° |
| 2026-05-08 17:32 | 11.23912 | -80.54260 | 28375 ft | 389 kts | 322° |
| 2026-05-08 17:32 | 11.25973 | -80.56033 | 27995 ft | 386 kts | 322° |
| 2026-05-08 17:32 | 11.28015 | -80.57789 | 27625 ft | 383 kts | 322° |
| 2026-05-08 17:32 | 11.30047 | -80.59537 | 27266 ft | 381 kts | 322° |
| 2026-05-08 17:33 | 11.32062 | -80.61271 | 26896 ft | 379 kts | 322° |
| 2026-05-08 17:33 | 11.34071 | -80.62999 | 26536 ft | 377 kts | 322° |
| 2026-05-08 17:33 | 11.36067 | -80.64718 | 26180 ft | 375 kts | 322° |
| 2026-05-08 17:33 | 11.38052 | -80.66426 | 25826 ft | 373 kts | 323° |
| 2026-05-08 17:34 | 11.40030 | -80.68129 | 25462 ft | 372 kts | 323° |
| 2026-05-08 17:34 | 11.42002 | -80.69827 | 25103 ft | 371 kts | 323° |
| 2026-05-08 17:34 | 11.43968 | -80.71521 | 24738 ft | 370 kts | 323° |
| 2026-05-08 17:34 | 11.45933 | -80.73213 | 24374 ft | 369 kts | 323° |
| 2026-05-08 17:35 | 11.47895 | -80.74904 | 24012 ft | 369 kts | 323° |
| 2026-05-08 17:35 | 11.49854 | -80.76592 | 23653 ft | 369 kts | 323° |
| 2026-05-08 17:35 | 11.51784 | -80.78256 | 23260 ft | 368 kts | 323° |
| 2026-05-08 17:35 | 11.53736 | -80.79939 | 22878 ft | 366 kts | 323° |
| 2026-05-08 17:36 | 11.55676 | -80.81612 | 22508 ft | 364 kts | 323° |
| 2026-05-08 17:36 | 11.57606 | -80.83277 | 22160 ft | 362 kts | 323° |
| 2026-05-08 17:36 | 11.59521 | -80.84929 | 21807 ft | 360 kts | 323° |
| 2026-05-08 17:36 | 11.61427 | -80.86574 | 21456 ft | 358 kts | 323° |
| 2026-05-08 17:37 | 11.63321 | -80.88209 | 21115 ft | 356 kts | 323° |
| 2026-05-08 17:37 | 11.65203 | -80.89834 | 20778 ft | 354 kts | 322° |
| 2026-05-08 17:37 | 11.67075 | -80.91450 | 20438 ft | 352 kts | 322° |
| 2026-05-08 17:37 | 11.68928 | -80.93078 | 20102 ft | 351 kts | 317° |
| 2026-05-08 17:38 | 11.70442 | -80.95033 | 19777 ft | 351 kts | 306° |
| 2026-05-08 17:38 | 11.71787 | -80.97105 | 19449 ft | 350 kts | 305° |
| 2026-05-08 17:38 | 11.73104 | -80.99189 | 19112 ft | 349 kts | 304° |
| 2026-05-08 17:38 | 11.74416 | -81.01265 | 18765 ft | 348 kts | 304° |
| 2026-05-08 17:39 | 11.75731 | -81.03332 | 18432 ft | 347 kts | 305° |
| 2026-05-08 17:39 | 11.77050 | -81.05389 | 18079 ft | 345 kts | 305° |
| 2026-05-08 17:39 | 11.78365 | -81.07433 | 17709 ft | 344 kts | 305° |
| 2026-05-08 17:39 | 11.79676 | -81.09463 | 17379 ft | 341 kts | 305° |
| 2026-05-08 17:40 | 11.80979 | -81.11477 | 17053 ft | 338 kts | 305° |
| 2026-05-08 17:40 | 11.82274 | -81.13475 | 16728 ft | 336 kts | 305° |
| 2026-05-08 17:40 | 11.83558 | -81.15455 | 16403 ft | 334 kts | 306° |
| 2026-05-08 17:40 | 11.84837 | -81.17428 | 16080 ft | 332 kts | 306° |
| 2026-05-08 17:41 | 11.86108 | -81.19387 | 15760 ft | 330 kts | 306° |
| 2026-05-08 17:41 | 11.87374 | -81.21340 | 15439 ft | 329 kts | 306° |
| 2026-05-08 17:41 | 11.88633 | -81.23282 | 15118 ft | 327 kts | 306° |
| 2026-05-08 17:41 | 11.89886 | -81.25215 | 14799 ft | 326 kts | 306° |
| 2026-05-08 17:42 | 11.91137 | -81.27145 | 14477 ft | 325 kts | 306° |
| 2026-05-08 17:42 | 11.92382 | -81.29066 | 14151 ft | 324 kts | 306° |
| 2026-05-08 17:42 | 11.93626 | -81.30987 | 13824 ft | 324 kts | 306° |
| 2026-05-08 17:42 | 11.94867 | -81.32903 | 13480 ft | 323 kts | 306° |
| 2026-05-08 17:43 | 11.96103 | -81.34812 | 13138 ft | 321 kts | 306° |
| 2026-05-08 17:43 | 11.97333 | -81.36713 | 12810 ft | 320 kts | 306° |
| 2026-05-08 17:43 | 11.98555 | -81.38600 | 12487 ft | 318 kts | 306° |
| 2026-05-08 17:43 | 11.99771 | -81.40480 | 12180 ft | 316 kts | 306° |
| 2026-05-08 17:44 | 12.00980 | -81.42349 | 11864 ft | 315 kts | 306° |
| 2026-05-08 17:44 | 12.02184 | -81.44211 | 11553 ft | 313 kts | 306° |
| 2026-05-08 17:44 | 12.03383 | -81.46065 | 11234 ft | 312 kts | 306° |
| 2026-05-08 17:44 | 12.04574 | -81.47906 | 10939 ft | 310 kts | 306° |
| 2026-05-08 17:45 | 12.05762 | -81.49743 | 10633 ft | 309 kts | 306° |
| 2026-05-08 17:45 | 12.06945 | -81.51574 | 10329 ft | 308 kts | 306° |
| 2026-05-08 17:45 | 12.08105 | -81.53368 | 10108 ft | 304 kts | 306° |
| 2026-05-08 17:45 | 12.09261 | -81.55159 | 9876 ft | 301 kts | 306° |
| 2026-05-08 17:46 | 12.10549 | -81.56855 | 9540 ft | 297 kts | 320° |
| 2026-05-08 17:46 | 12.12100 | -81.58173 | 9269 ft | 293 kts | 324° |
| 2026-05-08 17:46 | 12.13698 | -81.59460 | 8967 ft | 292 kts | 324° |
| 2026-05-08 17:46 | 12.15289 | -81.60736 | 8681 ft | 290 kts | 324° |
| 2026-05-08 17:47 | 12.16872 | -81.62013 | 8381 ft | 289 kts | 324° |
| 2026-05-08 17:47 | 12.18441 | -81.63287 | 8092 ft | 288 kts | 324° |
| 2026-05-08 17:47 | 12.20004 | -81.64563 | 7805 ft | 287 kts | 324° |
| 2026-05-08 17:47 | 12.21056 | -81.65423 | 7608 ft | 286 kts | 323° |
| 2026-05-08 17:48 | 12.23108 | -81.67107 | 7217 ft | 285 kts | 324° |
| 2026-05-08 17:48 | 12.24649 | -81.68374 | 6941 ft | 284 kts | 323° |
| 2026-05-08 17:48 | 12.26184 | -81.69636 | 6667 ft | 283 kts | 323° |
| 2026-05-08 17:48 | 12.27715 | -81.70896 | 6379 ft | 282 kts | 324° |
| 2026-05-08 17:49 | 12.29246 | -81.72157 | 6060 ft | 282 kts | 324° |
| 2026-05-08 17:49 | 12.30773 | -81.73416 | 5773 ft | 281 kts | 323° |
| 2026-05-08 17:49 | 12.32288 | -81.74665 | 5479 ft | 279 kts | 323° |
| 2026-05-08 17:49 | 12.33794 | -81.75906 | 5197 ft | 278 kts | 324° |
| 2026-05-08 17:50 | 12.35292 | -81.77142 | 4921 ft | 276 kts | 324° |
| 2026-05-08 17:50 | 12.36781 | -81.78370 | 4650 ft | 274 kts | 324° |
| 2026-05-08 17:50 | 12.38264 | -81.79593 | 4364 ft | 273 kts | 324° |
| 2026-05-08 17:50 | 12.39742 | -81.80811 | 4094 ft | 272 kts | 324° |
| 2026-05-08 17:51 | 12.41215 | -81.81976 | 3929 ft | 265 kts | 329° |
| 2026-05-08 17:51 | 12.42785 | -81.82936 | 3713 ft | 261 kts | 333° |
| 2026-05-08 17:51 | 12.44375 | -81.83851 | 3349 ft | 259 kts | 333° |
| 2026-05-08 17:51 | 12.45916 | -81.84747 | 3217 ft | 251 kts | 333° |
| 2026-05-08 17:52 | 12.47462 | -81.85479 | 3114 ft | 238 kts | 355° |
| 2026-05-08 17:52 | 12.49004 | -81.85252 | 3009 ft | 219 kts | 31° |
| 2026-05-08 17:52 | 12.51253 | -81.83292 | 2552 ft | 208 kts | 56° |
| 2026-05-08 17:53 | 12.52056 | -81.82083 | 2269 ft | 202 kts | 59° |
| 2026-05-08 17:53 | 12.52770 | -81.80881 | 2002 ft | 193 kts | 61° |
| 2026-05-08 17:53 | 12.53447 | -81.79708 | 1766 ft | 189 kts | 61° |
| 2026-05-08 17:53 | 12.54096 | -81.78578 | 1507 ft | 179 kts | 62° |
| 2026-05-08 17:54 | 12.54709 | -81.77510 | 1284 ft | 168 kts | 61° |
| 2026-05-08 17:54 | 12.55276 | -81.76524 | 1072 ft | 151 kts | 62° |
| 2026-05-08 17:54 | 12.55778 | -81.75650 | 901 ft | 137 kts | 62° |
| 2026-05-08 17:54 | 12.56250 | -81.74827 | 710 ft | 134 kts | 62° |
| 2026-05-08 17:55 | 12.56717 | -81.74012 | 524 ft | 131 kts | 59° |
| 2026-05-08 17:55 | 12.57175 | -81.73168 | 491 ft | 133 kts | 63° |
| 2026-05-08 17:55 | 12.57658 | -81.72367 | 207 ft | 132 kts | 61° |
| 2026-05-08 17:55 | 12.58106 | -81.71563 | 83 ft | 125 kts | 59° |
| 2026-05-08 17:56 | 12.58527 | -81.70845 | 158 ft | 126 kts | 62° |
| 2026-05-08 17:56 | 12.58924 | -81.70046 | 929 ft | 128 kts | 66° |
| 2026-05-08 17:56 | 12.59378 | -81.69139 | 1395 ft | 159 kts | 65° |
| 2026-05-08 17:56 | 12.59988 | -81.68062 | 1724 ft | 193 kts | 59° |
| 2026-05-08 17:57 | 12.60765 | -81.66846 | 2097 ft | 215 kts | 60° |
| 2026-05-08 17:57 | 12.61566 | -81.65500 | 2628 ft | 223 kts | 61° |
| 2026-05-08 17:57 | 12.62362 | -81.64140 | 2933 ft | 223 kts | 61° |
| 2026-05-08 17:57 | 12.63158 | -81.62769 | 2986 ft | 224 kts | 62° |
| 2026-05-08 17:58 | 12.63605 | -81.61291 | 2982 ft | 217 kts | 94° |
| 2026-05-08 17:58 | 12.63011 | -81.59909 | 2991 ft | 218 kts | 134° |
| 2026-05-08 17:58 | 12.61818 | -81.58945 | 3009 ft | 225 kts | 140° |
| 2026-05-08 17:58 | 12.60547 | -81.57982 | 3008 ft | 229 kts | 140° |
| 2026-05-08 17:59 | 12.59253 | -81.57028 | 2998 ft | 229 kts | 140° |
| 2026-05-08 17:59 | 12.57964 | -81.56084 | 3002 ft | 227 kts | 140° |
| 2026-05-08 17:59 | 12.56666 | -81.55177 | 2973 ft | 228 kts | 151° |
| 2026-05-08 17:59 | 12.55064 | -81.54995 | 3023 ft | 249 kts | 191° |
| 2026-05-08 18:00 | 12.53490 | -81.55947 | 3218 ft | 276 kts | 223° |
| 2026-05-08 18:00 | 12.51407 | -81.59327 | 3460 ft | 285 kts | 243° |
| 2026-05-08 18:00 | 12.50566 | -81.61156 | 3585 ft | 284 kts | 244° |
| 2026-05-08 18:01 | 12.49726 | -81.62986 | 3762 ft | 284 kts | 244° |
| 2026-05-08 18:01 | 12.48874 | -81.64809 | 3913 ft | 282 kts | 243° |
| 2026-05-08 18:01 | 12.48017 | -81.66614 | 3979 ft | 281 kts | 243° |
| 2026-05-08 18:01 | 12.47159 | -81.68397 | 3985 ft | 280 kts | 242° |
| 2026-05-08 18:02 | 12.46298 | -81.70174 | 3976 ft | 277 kts | 243° |
| 2026-05-08 18:02 | 12.45733 | -81.71334 | 3973 ft | 273 kts | 242° |
| 2026-05-08 18:02 | 12.44616 | -81.73624 | 3980 ft | 267 kts | 242° |
| 2026-05-08 18:02 | 12.43789 | -81.75315 | 3981 ft | 264 kts | 242° |
| 2026-05-08 18:03 | 12.42966 | -81.76999 | 3998 ft | 264 kts | 242° |
| 2026-05-08 18:03 | 12.42155 | -81.78677 | 3992 ft | 263 kts | 246° |
| 2026-05-08 18:03 | 12.41856 | -81.80495 | 3988 ft | 260 kts | 278° |
| 2026-05-08 18:03 | 12.42454 | -81.82210 | 3895 ft | 259 kts | 307° |
| 2026-05-08 18:04 | 12.43747 | -81.83486 | 3698 ft | 260 kts | 329° |
| 2026-05-08 18:04 | 12.45290 | -81.84455 | 3450 ft | 260 kts | 333° |
| 2026-05-08 18:04 | 12.46896 | -81.85294 | 3171 ft | 255 kts | 347° |
| 2026-05-08 18:04 | 12.48560 | -81.85294 | 3035 ft | 231 kts | 22° |
| 2026-05-08 18:05 | 12.49904 | -81.84514 | 2847 ft | 217 kts | 40° |
| 2026-05-08 18:05 | 12.51016 | -81.83533 | 2578 ft | 210 kts | 51° |
| 2026-05-08 18:05 | 12.51867 | -81.82357 | 2338 ft | 202 kts | 58° |
| 2026-05-08 18:05 | 12.52616 | -81.81136 | 2080 ft | 197 kts | 60° |
| 2026-05-08 18:06 | 12.53302 | -81.79960 | 1815 ft | 192 kts | 61° |
| 2026-05-08 18:06 | 12.53961 | -81.78814 | 1559 ft | 182 kts | 62° |
| 2026-05-08 18:06 | 12.54581 | -81.77732 | 1332 ft | 169 kts | 61° |
| 2026-05-08 18:06 | 12.55152 | -81.76740 | 1127 ft | 152 kts | 62° |
| 2026-05-08 18:07 | 12.55655 | -81.75864 | 936 ft | 136 kts | 62° |
| 2026-05-08 18:07 | 12.56128 | -81.75039 | 763 ft | 133 kts | 62° |
| 2026-05-08 18:07 | 12.56589 | -81.74227 | 565 ft | 128 kts | 60° |
| 2026-05-08 18:07 | 12.57029 | -81.73440 | 425 ft | 130 kts | 58° |
| 2026-05-08 18:08 | 12.57499 | -81.72625 | 278 ft | 135 kts | 62° |
| 2026-05-08 18:08 | 12.57971 | -81.71788 | 96 ft | 133 kts | 60° |
| 2026-05-08 18:08 | 12.58402 | -81.71058 | 53 ft | 103 kts | 59° |
| 2026-05-08 18:08 | 12.58650 | -81.70619 | 40 ft | 36 kts | 60° |
| 2026-05-08 18:09 | 12.58732 | -81.70464 | 34 ft | 17 kts | 76° |
| 2026-05-08 18:09 | 12.58720 | -81.70399 | 31 ft | 0 kts | 109° |
| 2026-05-08 18:10 | 12.58720 | -81.70398 | 31 ft | 0 kts | 109° |
| 2026-05-08 18:10 | 12.58714 | -81.70381 | 33 ft | 5 kts | 110° |
| 2026-05-08 18:10 | 12.58709 | -81.70335 | 32 ft | 7 kts | 68° |
| 2026-05-08 18:10 | 12.58720 | -81.70306 | 31 ft | 1 kts | 101° |
| 2026-05-08 18:11 | 12.58710 | -81.70294 | 31 ft | 4 kts | 132° |
| 2026-05-08 18:11 | 12.58682 | -81.70276 | 31 ft | 0 kts | 149° |
| 2026-05-08 18:11 | 12.58680 | -81.70275 | 31 ft | 1 kts | 150° |
| 2026-05-08 18:11 | 12.58673 | -81.70271 | 31 ft | 0 kts | 150° |
| 2026-05-08 18:12 | 12.58673 | -81.70270 | 31 ft | 0 kts | 150° |